Time;durP1;ratioP1;P1;durP2;ratioP2;P2;SDS_P1;SDS_P2;PMS_P1;PMS_P2;Temp;Humidity;BMP_temperature;BMP_pressure;BME280_temperature;BME280_humidity;BME280_pressure;Samples;Min_cycle;Max_cycle;Signal;HPM_P1;HPM_P2
2022/04/12 00:01:35;;;;;;;2.53;1.80;;;16.80;75.30;;;16.77;36.32;100769.69;4810678;29;101723;-57
2022/04/12 00:04:02;;;;;;;4.43;2.80;;;16.80;75.00;;;16.74;36.18;100772.53;4811984;29;109102;-58
2022/04/12 00:06:28;;;;;;;3.60;1.80;;;16.70;74.80;;;16.73;36.44;100770.81;4807403;29;97088;-59
2022/04/12 00:08:54;;;;;;;3.47;2.40;;;16.70;75.20;;;16.72;36.35;100769.09;4811731;29;97352;-58
2022/04/12 00:11:20;;;;;;;1.60;1.50;;;16.70;75.10;;;16.71;36.40;100772.72;4808523;28;97460;-58
2022/04/12 00:13:46;;;;;;;1.53;1.40;;;16.70;75.40;;;16.69;36.33;100763.09;4811472;29;102211;-58
2022/04/12 00:16:12;;;;;;;2.70;1.93;;;16.70;75.40;;;16.68;36.55;100767.56;4805450;29;97441;-58
2022/04/12 00:21:22;;;;;;;2.60;2.20;;;16.70;75.60;;;16.59;36.67;100754.75;4804399;29;97743;-58
2022/04/12 00:23:47;;;;;;;2.80;1.80;;;16.60;76.30;;;16.59;36.72;100757.44;4806824;29;114320;-58
2022/04/12 00:26:14;;;;;;;1.60;1.50;;;16.60;76.10;;;16.59;36.69;100754.75;4800882;29;97906;-58
2022/04/12 00:28:41;;;;;;;1.80;1.70;;;16.60;76.00;;;16.59;36.89;100752.09;4806716;29;97532;-58
2022/04/12 00:31:08;;;;;;;1.77;1.53;;;16.60;75.90;;;16.58;36.85;100761.91;4805573;29;98015;-58
2022/04/12 00:33:34;;;;;;;2.07;1.63;;;16.60;76.00;;;16.57;36.79;100749.53;4803886;29;98708;-60
2022/04/12 00:36:01;;;;;;;3.73;2.90;;;16.60;76.10;;;16.57;36.78;100743.34;4806165;28;97327;-57
2022/04/12 00:38:33;;;;;;;3.37;1.73;;;16.60;76.00;;;16.55;36.74;100745.25;4787033;29;97493;-58
2022/04/12 00:41:04;;;;;;;4.60;3.37;;;16.50;76.30;;;16.54;36.97;100732.88;4807433;29;97452;-57
2022/04/12 00:43:35;;;;;;;1.90;1.70;;;16.50;76.20;;;16.55;36.88;100746.09;4802655;29;98149;-56
2022/04/12 00:46:01;;;;;;;1.80;1.57;;;16.50;76.20;;;16.55;36.97;100734.59;4805976;29;97470;-57
2022/04/12 00:48:28;;;;;;;1.50;1.40;;;16.50;76.30;;;16.57;36.91;100738.88;4803504;29;97328;-58
2022/04/12 00:50:55;;;;;;;1.50;1.40;;;16.60;76.20;;;16.59;36.86;100736.97;4789172;29;101166;-57
2022/04/12 00:53:21;;;;;;;1.50;1.40;;;16.60;76.10;;;16.62;36.83;100743.91;4802463;29;97322;-58
2022/04/12 00:55:47;;;;;;;1.60;1.50;;;16.70;76.10;;;16.63;36.69;100740.31;4810274;29;97144;-58
2022/04/12 00:58:13;;;;;;;3.13;2.13;;;16.70;75.70;;;16.62;36.78;100743.91;4815814;29;117699;-57
2022/04/12 01:00:38;;;;;;;2.17;1.60;;;16.60;75.20;;;16.61;36.60;100744.88;4819719;29;97696;-59
2022/04/12 01:03:04;;;;;;;2.50;2.03;;;16.60;76.10;;;16.58;36.99;100745.06;4820795;29;97837;-57
2022/04/12 01:05:34;;;;;;;2.67;1.90;;;16.60;76.40;;;16.54;37.00;100744.38;4780389;29;97437;-57
2022/04/12 01:08:06;;;;;;;2.33;2.13;;;16.50;76.90;;;16.49;37.01;100740.25;4795566;29;97243;-57
2022/04/12 01:10:33;;;;;;;4.53;3.37;;;16.40;77.20;;;16.42;37.49;100744.25;4821196;29;97154;-58
2022/04/12 01:13:00;;;;;;;2.87;2.27;;;16.30;77.60;;;16.39;37.44;100749.75;4821599;29;96870;-58
2022/04/12 01:15:28;;;;;;;3.20;2.90;;;16.20;77.80;;;16.37;37.54;100741.88;4827577;28;96990;-58
2022/04/12 01:17:54;;;;;;;1.50;1.40;;;16.20;77.70;;;16.41;37.44;100731.88;4818547;29;97178;-58
2022/04/12 01:20:24;;;;;;;2.23;1.80;;;16.30;77.70;;;16.46;37.15;100724.47;4818597;28;97916;-58
2022/04/12 01:23:07;;;;;;;2.40;1.70;;;16.40;77.20;;;16.54;37.35;100722.22;4821674;29;97619;-58
2022/04/12 01:25:34;;;;;;;1.90;1.70;;;16.50;76.90;;;16.55;37.12;100719.47;4830261;28;97510;-57
2022/04/12 01:28:00;;;;;;;2.00;1.60;;;16.60;76.90;;;16.57;37.02;100722.03;4803727;29;97212;-56
2022/04/12 01:30:26;;;;;;;2.67;2.40;;;16.60;76.50;;;16.53;37.30;100723.19;4822028;28;98724;-57
2022/04/12 01:32:51;;;;;;;2.23;1.70;;;16.50;77.10;;;16.46;37.48;100724.47;4818695;29;97201;-58
2022/04/12 01:35:17;;;;;;;3.87;2.87;;;16.40;76.80;;;16.42;37.33;100717.63;4815575;28;96708;-56
2022/04/12 01:37:43;;;;;;;2.53;2.00;;;16.30;77.70;;;16.41;37.63;100711.44;4823138;28;97014;-57
2022/04/12 01:40:09;;;;;;;2.77;1.93;;;16.30;77.90;;;16.38;37.54;100711.63;4824023;29;98984;-58
2022/04/12 01:42:38;;;;;;;1.97;1.63;;;16.30;78.10;;;16.42;37.43;100712.31;4820719;28;99813;-58
2022/04/12 01:45:05;;;;;;;1.50;1.40;;;16.30;77.80;;;16.46;37.42;100708.50;4826092;28;97440;-58
2022/04/12 01:47:31;;;;;;;2.47;1.60;;;16.40;77.50;;;16.49;37.45;100703.00;4821294;29;97219;-58
2022/04/12 01:49:56;;;;;;;4.10;3.47;;;16.50;77.20;;;16.50;37.24;100699.41;4821392;29;97525;-58
2022/04/12 01:52:22;;;;;;;3.77;2.07;;;16.50;76.00;;;16.52;37.09;100702.84;4811725;29;127547;-58
2022/04/12 01:54:49;;;;;;;2.23;1.70;;;16.50;77.20;;;16.57;37.04;100696.28;4822386;29;96819;-58
2022/04/12 01:57:15;;;;;;;2.33;1.93;;;16.60;76.80;;;16.56;37.21;100704.34;4812119;28;96778;-57
2022/04/12 01:59:43;;;;;;;2.23;2.03;;;16.60;76.70;;;16.58;37.00;100702.47;4817789;29;96928;-59
2022/04/12 02:02:18;;;;;;;1.93;1.60;;;16.60;76.30;;;16.56;36.92;100699.88;4810422;29;97043;-63
2022/04/12 02:04:44;;;;;;;1.87;1.67;;;16.60;76.20;;;16.58;37.17;100699.78;4818009;29;97252;-57
2022/04/12 02:07:10;;;;;;;2.33;2.00;;;16.60;76.80;;;16.58;36.99;100697.13;4821763;28;103113;-59
2022/04/12 02:09:35;;;;;;;1.73;1.60;;;16.60;76.70;;;16.60;36.89;100692.56;4815347;29;125294;-58
2022/04/12 02:12:01;;;;;;;2.57;1.80;;;16.60;76.20;;;16.61;37.07;100696.94;4823377;29;111057;-58
2022/04/12 02:14:27;;;;;;;1.60;1.50;;;16.60;76.50;;;16.63;36.77;100689.72;4811906;28;97268;-58
2022/04/12 02:17:04;;;;;;;1.57;1.47;;;16.70;76.40;;;16.65;36.75;100685.19;4816698;28;97805;-59
2022/04/12 02:19:30;;;;;;;2.00;1.73;;;16.70;76.40;;;16.68;36.90;100698.34;4806967;29;97222;-59
2022/04/12 02:21:55;;;;;;;2.10;1.83;;;16.70;76.30;;;16.67;36.96;100691.28;4821129;29;124052;-59
2022/04/12 02:24:21;;;;;;;1.87;1.60;;;16.70;76.20;;;16.68;36.66;100687.69;4819430;29;115180;-58
2022/04/12 02:26:47;;;;;;;2.50;2.30;;;16.80;76.10;;;16.69;36.98;100678.75;4822717;28;104939;-58
2022/04/12 02:29:13;;;;;;;1.73;1.47;;;16.70;76.40;;;16.69;36.92;100678.75;4815451;28;96855;-57
2022/04/12 02:31:41;;;;;;;2.40;1.70;;;16.80;76.90;;;16.72;36.96;100683.88;4821777;29;96788;-59
2022/04/12 02:34:07;;;;;;;1.80;1.40;;;16.80;75.90;;;16.71;36.74;100687.50;4817460;29;96844;-57
2022/04/12 02:36:33;;;;;;;2.40;1.80;;;16.80;76.10;;;16.73;36.92;100690.06;4823229;28;97419;-59
2022/04/12 02:38:58;;;;;;;1.60;1.50;;;16.80;76.10;;;16.75;36.81;100682.81;4822095;29;110408;-59
2022/04/12 02:41:24;;;;;;;1.60;1.50;;;16.80;76.00;;;16.75;36.90;100694.34;4821554;28;125742;-58
2022/04/12 02:43:50;;;;;;;3.37;2.80;;;16.90;75.90;;;16.76;36.51;100685.38;4817328;29;117392;-59
2022/04/12 02:46:16;;;;;;;1.33;1.23;;;16.90;75.00;;;16.77;36.69;100687.09;4821212;28;97394;-59
2022/04/12 02:48:42;;;;;;;1.97;1.67;;;16.90;75.80;;;16.77;36.94;100692.44;4819375;29;97636;-59
2022/04/12 02:51:07;;;;;;;2.97;1.83;;;16.90;75.90;;;16.79;36.69;100695.03;4822299;28;97449;-59
2022/04/12 02:53:33;;;;;;;1.53;1.43;;;16.90;75.00;;;16.77;36.82;100687.09;4814755;28;114256;-57
2022/04/12 02:55:59;;;;;;;2.33;1.83;;;16.90;75.80;;;16.78;36.67;100686.19;4823882;28;96843;-59
2022/04/12 02:58:24;;;;;;;1.57;1.47;;;16.90;75.80;;;16.78;36.66;100680.84;4820226;28;100152;-58
2022/04/12 03:00:50;;;;;;;2.17;1.80;;;16.90;75.80;;;16.79;36.65;100684.38;4821680;28;115216;-58
2022/04/12 03:03:16;;;;;;;1.83;1.60;;;16.90;75.80;;;16.78;36.64;100683.53;4816285;29;112603;-59
2022/04/12 03:05:42;;;;;;;2.20;2.00;;;16.90;75.50;;;16.81;36.75;100680.66;4823708;29;97636;-59
2022/04/12 03:08:07;;;;;;;2.00;1.80;;;16.90;75.60;;;16.85;36.52;100682.19;4817308;29;118573;-59
2022/04/12 03:10:33;;;;;;;2.07;1.73;;;17.00;75.70;;;16.85;36.59;100686.66;4816244;29;104736;-56
2022/04/12 03:12:59;;;;;;;1.83;1.60;;;17.00;76.60;;;16.85;36.75;100674.19;4820831;29;96814;-59
2022/04/12 03:15:25;;;;;;;1.70;1.60;;;17.00;75.60;;;16.85;36.58;100674.19;4816472;29;111130;-58
2022/04/12 03:17:50;;;;;;;2.87;1.77;;;17.00;75.50;;;16.85;36.66;100679.50;4822277;29;124635;-56
2022/04/12 03:20:16;;;;;;;2.30;1.70;;;16.90;75.60;;;16.84;36.67;100679.59;4813579;29;109403;-58
2022/04/12 03:22:42;;;;;;;3.90;3.27;;;16.90;75.40;;;16.81;36.43;100688.66;4822440;29;106624;-59
2022/04/12 03:25:11;;;;;;;3.83;1.80;;;16.90;75.20;;;16.75;36.66;100689.00;4817109;29;97107;-59
2022/04/12 03:27:37;;;;;;;3.13;2.20;;;16.70;76.30;;;16.72;36.69;100677.69;4816073;29;120160;-59
2022/04/12 03:30:05;;;;;;;3.23;1.87;;;16.70;75.90;;;16.70;36.91;100677.78;4816269;29;97147;-59
2022/04/12 03:32:31;;;;;;;3.20;2.00;;;16.70;76.50;;;16.71;36.71;100663.50;4815262;29;96952;-59
2022/04/12 03:34:57;;;;;;;1.70;1.60;;;16.70;76.50;;;16.72;36.83;100665.22;4822027;29;107674;-59
2022/04/12 03:37:22;;;;;;;2.37;1.67;;;16.80;76.30;;;16.76;36.90;100673.88;4811703;29;115062;-57
2022/04/12 03:39:51;;;;;;;2.33;1.57;;;16.80;76.00;;;16.76;37.04;100680.06;4803594;28;99113;-59
2022/04/12 03:42:18;;;;;;;2.10;1.70;;;16.80;76.10;;;16.75;36.90;100675.69;4756274;29;97249;-59
2022/04/12 03:44:45;;;;;;;1.57;1.47;;;16.80;76.10;;;16.75;36.96;100670.38;4832873;28;96982;-59
2022/04/12 03:47:12;;;;;;;1.70;1.30;;;16.90;76.10;;;16.77;36.88;100664.94;4816309;29;97078;-63
2022/04/12 03:49:38;;;;;;;3.13;1.50;;;16.90;75.90;;;16.78;36.77;100659.53;4820363;29;100632;-59
2022/04/12 03:52:04;;;;;;;1.73;1.40;;;16.90;76.00;;;16.81;36.63;100646.03;4820318;29;97026;-59
2022/04/12 03:54:30;;;;;;;2.50;1.80;;;16.90;76.00;;;16.82;36.65;100642.41;4818873;28;97000;-59
2022/04/12 03:56:56;;;;;;;2.07;1.67;;;16.90;75.80;;;16.80;36.81;100639.00;4820221;28;98852;-59
2022/04/12 03:59:21;;;;;;;1.53;1.40;;;16.90;75.70;;;16.80;36.75;100631.00;4819448;28;97510;-59
2022/04/12 04:01:49;;;;;;;2.40;1.90;;;17.00;75.60;;;16.80;36.72;100623.00;4822640;28;121608;-59
2022/04/12 04:04:16;;;;;;;3.33;2.60;;;17.00;75.60;;;16.83;36.57;100628.13;4819542;29;97080;-59
2022/04/12 04:06:42;;;;;;;2.97;2.17;;;17.00;75.20;;;16.85;36.21;100631.56;4822319;29;98653;-58
2022/04/12 04:09:07;;;;;;;1.83;1.60;;;17.00;74.40;;;16.83;36.55;100628.13;4815797;28;97703;-59
2022/04/12 04:11:33;;;;;;;2.40;1.73;;;17.00;75.70;;;16.81;36.80;100635.38;4825909;28;97361;-59
2022/04/12 04:14:03;;;;;;;2.20;1.40;;;16.90;75.60;;;16.82;36.68;100637.09;4827788;29;108662;-59
2022/04/12 04:16:30;;;;;;;2.20;1.67;;;16.90;75.80;;;16.82;36.59;100637.09;4820317;28;98543;-59
2022/04/12 04:18:55;;;;;;;3.83;1.83;;;16.90;76.00;;;16.80;36.67;100639.00;4827135;29;96807;-58
2022/04/12 04:21:21;;;;;;;3.13;1.63;;;16.90;75.80;;;16.80;36.52;100633.66;4824441;28;120535;-59
2022/04/12 04:23:47;;;;;;;2.87;1.60;;;16.90;75.80;;;16.83;36.88;100645.94;4844498;28;107225;-59
2022/04/12 04:26:13;;;;;;;3.87;2.23;;;16.90;75.40;;;16.81;36.64;100645.19;4829511;28;118880;-59
2022/04/12 04:28:41;;;;;;;3.13;1.97;;;16.90;75.10;;;16.82;36.78;100647.75;4824967;28;100941;-59
2022/04/12 04:31:08;;;;;;;2.73;1.70;;;16.90;76.50;;;16.80;36.63;100649.66;4821272;29;97407;-58
2022/04/12 04:33:34;;;;;;;2.53;1.80;;;16.90;75.70;;;16.81;36.93;100646.03;4824627;28;97187;-59
2022/04/12 04:35:59;;;;;;;2.33;2.03;;;16.90;75.80;;;16.82;36.83;100653.06;4828622;28;122506;-58
2022/04/12 04:38:25;;;;;;;1.93;1.67;;;16.90;75.30;;;16.82;36.70;100661.06;4814088;28;126175;-55
2022/04/12 04:40:51;;;;;;;2.03;1.70;;;16.90;75.90;;;16.80;36.72;100657.63;4829808;28;97042;-55
2022/04/12 04:43:17;;;;;;;2.20;1.57;;;16.90;76.00;;;16.81;36.75;100655.84;4821114;28;96944;-58
2022/04/12 04:45:46;;;;;;;1.90;1.50;;;16.90;75.90;;;16.82;36.77;100663.72;4823950;29;116259;-55
2022/04/12 04:48:13;;;;;;;2.93;1.53;;;16.90;75.90;;;16.82;36.59;100663.72;4823305;28;97176;-60
2022/04/12 04:50:39;;;;;;;2.77;1.50;;;16.90;75.80;;;16.78;36.99;100667.53;4823609;29;96958;-55
2022/04/12 04:53:07;;;;;;;2.17;1.87;;;16.90;75.70;;;16.79;36.99;100677.25;4821676;28;97973;-57
2022/04/12 04:55:35;;;;;;;2.27;1.40;;;16.80;76.20;;;16.74;37.13;100681.13;4819002;29;97502;-59
2022/04/12 04:58:02;;;;;;;1.67;1.40;;;16.70;76.60;;;16.72;37.21;100670.56;4818288;29;98300;-55
2022/04/12 05:00:36;;;;;;;1.70;1.60;;;16.70;76.60;;;16.71;37.05;100676.84;4813701;29;97370;-55
2022/04/12 05:03:13;;;;;;;3.03;1.77;;;16.70;76.70;;;16.73;37.18;100677.59;4812148;28;98195;-54
2022/04/12 05:05:39;;;;;;;2.57;2.00;;;16.70;76.00;;;16.72;37.10;100673.22;4817507;29;101966;-58
2022/04/12 05:08:05;;;;;;;2.00;1.77;;;16.80;76.20;;;16.69;37.22;100684.06;4824182;28;100411;-57
2022/04/12 05:10:32;;;;;;;2.70;1.97;;;16.80;76.20;;;16.72;36.88;100688.34;4818592;29;97097;-56
2022/04/12 05:13:00;;;;;;;3.83;1.40;;;16.80;76.10;;;16.73;37.25;100690.91;4825205;29;97133;-58
2022/04/12 05:15:27;;;;;;;1.80;1.30;;;16.80;76.40;;;16.71;37.18;100681.31;4817967;29;98561;-57
2022/04/12 05:17:54;;;;;;;2.47;1.63;;;16.80;76.40;;;16.71;37.21;100682.16;4824832;29;97051;-59
2022/04/12 05:20:25;;;;;;;2.00;1.70;;;16.80;76.30;;;16.71;36.91;100684.81;4816312;29;99596;-57
2022/04/12 05:22:51;;;;;;;2.20;1.50;;;16.90;76.20;;;16.75;36.95;100682.81;4823051;29;99923;-58
2022/04/12 05:25:17;;;;;;;2.40;1.80;;;16.90;76.20;;;16.75;36.83;100681.00;4818552;29;97082;-55
2022/04/12 05:27:43;;;;;;;2.00;1.80;;;16.90;76.20;;;16.78;36.88;100678.19;4821663;29;97261;-53
2022/04/12 05:30:12;;;;;;;2.33;1.70;;;17.00;76.00;;;16.80;37.18;100670.97;4824480;29;96763;-54
2022/04/12 05:32:38;;;;;;;2.33;1.70;;;17.00;76.10;;;16.82;37.11;100679.72;4818441;29;97472;-57
2022/04/12 05:35:06;;;;;;;1.60;1.50;;;17.00;76.00;;;16.82;37.08;100677.03;4816829;29;97569;-60
2022/04/12 05:37:33;;;;;;;1.63;1.30;;;17.00;76.00;;;16.83;37.21;100670.75;4819401;28;97119;-53
2022/04/12 05:40:04;;;;;;;2.20;1.40;;;17.00;75.80;;;16.82;36.96;100678.84;4821850;29;97472;-57
2022/04/12 05:42:29;;;;;;;2.30;1.63;;;17.00;75.80;;;16.76;37.00;100684.53;4823219;28;97316;-55
2022/04/12 05:44:55;;;;;;;2.00;1.80;;;17.00;75.80;;;16.77;37.06;100676.44;4828803;28;119303;-54
2022/04/12 05:47:21;;;;;;;2.13;1.73;;;17.00;75.90;;;16.81;36.98;100683.31;4815750;29;116748;-58
2022/04/12 05:49:47;;;;;;;1.77;1.40;;;17.00;75.80;;;16.83;36.92;100676.09;4817739;29;97066;-56
2022/04/12 05:52:13;;;;;;;2.00;1.53;;;17.10;75.80;;;16.82;36.97;100685.03;4823135;28;97553;-57
2022/04/12 05:54:39;;;;;;;2.00;1.50;;;17.00;75.80;;;16.85;36.74;100692.84;4820465;29;97311;-54
2022/04/12 05:57:05;;;;;;;2.43;1.50;;;17.10;75.50;;;16.83;37.06;100686.75;4822639;29;97445;-56
2022/04/12 05:59:31;;;;;;;1.67;1.53;;;17.10;75.60;;;16.83;36.84;100689.41;4811409;28;99758;-57
2022/04/12 06:01:57;;;;;;;2.93;1.73;;;17.10;75.60;;;16.85;36.31;100682.19;4822071;29;97051;-56
2022/04/12 06:04:23;;;;;;;1.93;1.40;;;17.10;74.60;;;16.81;36.79;100688.66;4817862;28;97115;-55
2022/04/12 06:06:48;;;;;;;1.67;1.40;;;17.00;75.60;;;16.81;36.97;100695.78;4820690;29;97619;-58
2022/04/12 06:09:14;;;;;;;1.93;1.63;;;17.00;75.60;;;16.82;36.90;100700.16;4816449;29;106088;-59
2022/04/12 06:11:44;;;;;;;2.13;1.80;;;17.00;75.30;;;16.83;36.87;100692.06;4789972;28;97529;-59
2022/04/12 06:14:09;;;;;;;3.03;1.80;;;17.10;75.60;;;16.85;36.89;100700.81;4821453;28;98318;-59
2022/04/12 06:16:35;;;;;;;1.80;1.60;;;17.10;75.50;;;16.86;36.76;100699.88;4820141;29;101196;-59
2022/04/12 06:19:01;;;;;;;1.70;1.50;;;17.10;75.60;;;16.79;36.96;100690.56;4826806;28;98257;-59
2022/04/12 06:21:27;;;;;;;2.07;1.70;;;17.00;75.50;;;16.79;36.99;100695.88;4818577;29;97459;-59
2022/04/12 06:23:55;;;;;;;2.17;1.77;;;17.00;75.70;;;16.84;36.88;100699.13;4820283;28;97579;-59
2022/04/12 06:26:20;;;;;;;3.20;2.30;;;17.00;75.30;;;16.87;36.86;100703.38;4805975;29;97317;-59
2022/04/12 06:28:47;;;;;;;5.30;2.83;;;17.00;74.80;;;16.90;36.44;100700.53;4808601;29;97108;-59
2022/04/12 06:31:12;;;;;;;2.00;1.70;;;17.00;74.80;;;16.84;36.88;100701.78;4808817;29;97477;-60
2022/04/12 06:33:39;;;;;;;1.83;1.70;;;17.00;75.70;;;16.81;37.11;100693.97;4810536;29;97593;-59
2022/04/12 06:36:05;;;;;;;1.50;1.40;;;17.00;75.80;;;16.79;37.04;100709.19;4809216;29;97610;-59
2022/04/12 06:38:30;;;;;;;5.17;3.13;;;17.00;75.40;;;16.83;36.46;100697.41;4811289;29;97662;-59
2022/04/12 06:43:38;;;;;;;1.43;1.23;;;17.00;75.80;;;16.80;37.18;100697.59;4803570;29;97844;-59
2022/04/12 06:46:03;;;;;;;1.73;1.40;;;17.00;75.70;;;16.79;37.10;100695.88;4813193;29;104785;-57
2022/04/12 06:48:30;;;;;;;1.67;1.30;;;17.10;75.90;;;16.83;36.93;100696.53;4809127;29;96970;-59
2022/04/12 06:50:56;;;;;;;2.10;1.70;;;17.10;75.80;;;16.89;36.94;100710.34;4807696;29;97368;-59
2022/04/12 06:53:23;;;;;;;2.27;1.90;;;17.10;75.30;;;16.91;36.85;100703.09;4812483;29;97230;-59
2022/04/12 06:55:49;;;;;;;2.17;1.87;;;17.10;75.40;;;16.92;36.74;100712.84;4803802;29;99184;-59
2022/04/12 06:58:15;;;;;;;2.93;1.77;;;17.10;75.60;;;16.94;36.70;100710.94;4812218;29;97011;-57
2022/04/12 07:00:57;;;;;;;1.73;1.53;;;17.10;75.40;;;16.93;36.87;100703.03;4796387;29;97635;-60
2022/04/12 07:03:25;;;;;;;2.60;2.23;;;17.10;75.60;;;16.92;36.98;100704.84;4757603;29;97567;-55
2022/04/12 07:05:55;;;;;;;2.47;1.60;;;17.10;75.20;;;16.95;36.70;100706.47;4806636;28;97089;-56
2022/04/12 07:08:23;;;;;;;1.43;1.30;;;17.10;75.50;;;16.95;36.83;100704.66;4813775;28;96885;-59
2022/04/12 07:10:49;;;;;;;1.80;1.40;;;17.10;75.80;;;16.87;36.97;100701.59;4809713;29;97532;-59
2022/04/12 07:13:15;;;;;;;1.80;1.53;;;17.10;75.90;;;16.87;36.97;100698.91;4812764;29;97541;-60
2022/04/12 07:15:40;;;;;;;1.73;1.50;;;17.10;76.00;;;16.80;37.19;100702.91;4809139;29;97137;-59
2022/04/12 07:18:06;;;;;;;2.40;1.40;;;17.10;75.90;;;16.80;37.23;100694.94;4813096;29;98703;-60
2022/04/12 07:20:32;;;;;;;4.23;2.20;;;17.00;76.10;;;16.82;36.86;100701.03;4813532;29;96983;-59
2022/04/12 07:22:58;;;;;;;2.13;1.70;;;17.10;75.30;;;16.86;36.62;100697.22;4809104;29;98894;-58
2022/04/12 07:25:24;;;;;;;1.40;1.30;;;17.10;74.70;;;16.83;37.01;100696.53;4812400;29;108642;-58
2022/04/12 07:27:50;;;;;;;2.10;1.37;;;17.00;75.80;;;16.78;37.21;100704.81;4807936;29;115683;-58
2022/04/12 07:30:16;;;;;;;2.50;2.00;;;17.00;76.00;;;16.86;37.21;100699.00;4814017;29;97997;-59
2022/04/12 07:32:42;;;;;;;2.63;1.83;;;17.10;75.90;;;16.90;36.78;100703.19;4810333;29;101511;-59
2022/04/12 07:35:09;;;;;;;1.50;1.40;;;17.10;75.60;;;16.81;37.21;100699.31;4804672;29;115908;-56
2022/04/12 07:37:35;;;;;;;2.13;1.77;;;17.00;75.90;;;16.87;37.09;100698.91;4823020;28;99840;-57
2022/04/12 07:40:03;;;;;;;1.50;1.40;;;17.00;75.80;;;16.74;37.31;100687.28;4809542;29;97680;-57
2022/04/12 07:42:29;;;;;;;2.10;1.50;;;17.00;76.20;;;16.70;37.75;100680.44;4809461;29;99903;-57
2022/04/12 07:44:57;;;;;;;2.07;1.30;;;17.00;76.40;;;16.76;37.26;100674.72;4807857;29;97796;-55
2022/04/12 07:47:23;;;;;;;1.77;1.57;;;17.00;76.20;;;16.75;37.26;100674.84;4811615;29;99055;-58
2022/04/12 07:49:49;;;;;;;3.03;2.70;;;17.00;76.30;;;16.82;37.12;100685.03;4806001;29;99484;-58
2022/04/12 07:52:15;;;;;;;2.97;2.33;;;17.00;75.60;;;16.81;37.24;100683.31;4811808;29;98347;-57
2022/04/12 07:54:41;;;;;;;2.53;1.57;;;17.00;75.90;;;16.74;37.44;100684.63;4804304;29;115557;-57
2022/04/12 07:57:07;;;;;;;2.13;1.90;;;17.00;76.40;;;16.77;37.59;100681.78;4809775;29;97622;-56
2022/04/12 07:59:33;;;;;;;1.50;1.33;;;17.00;76.50;;;16.71;37.50;100674.16;4813577;29;98027;-55
2022/04/12 08:01:59;;;;;;;3.90;2.53;;;17.00;76.50;;;16.86;37.35;100672.38;4805530;29;98032;-55
2022/04/12 08:04:24;;;;;;;2.27;1.50;;;17.00;76.30;;;16.76;37.58;100674.72;4810547;29;99035;-55
2022/04/12 08:06:51;;;;;;;4.57;2.17;;;17.00;76.40;;;16.83;36.98;100673.44;4806715;29;101133;-58
2022/04/12 08:09:17;;;;;;;1.77;1.57;;;17.10;76.00;;;16.76;37.35;100669.41;4810598;29;98925;-56
2022/04/12 08:11:43;;;;;;;2.87;2.17;;;17.00;76.30;;;16.76;37.04;100663.22;4807041;29;99152;-56
2022/04/12 08:14:11;;;;;;;4.73;2.00;;;17.00;75.90;;;16.80;36.78;100660.31;4812035;29;98018;-57
2022/04/12 08:16:37;;;;;;;1.30;1.17;;;17.00;75.80;;;16.71;37.36;100654.66;4807852;29;99146;-63
2022/04/12 08:19:02;;;;;;;2.17;1.57;;;17.00;76.60;;;16.69;37.49;100651.25;4811377;29;99802;-55
2022/04/12 08:21:39;;;;;;;1.93;1.50;;;17.00;76.70;;;16.78;37.58;100659.53;4812611;28;100847;-59
2022/04/12 08:24:07;;;;;;;2.13;1.57;;;17.00;76.40;;;16.83;37.23;100665.44;4805491;29;103680;-59
2022/04/12 08:26:33;;;;;;;1.83;1.40;;;17.00;76.30;;;16.82;37.11;100673.53;4811037;29;100508;-56
2022/04/12 08:28:59;;;;;;;4.03;2.27;;;17.00;76.10;;;16.73;37.70;100677.59;4807949;29;117366;-56
2022/04/12 08:31:25;;;;;;;2.87;1.70;;;17.00;76.60;;;16.68;37.77;100669.03;4811558;29;110238;-58
2022/04/12 08:33:51;;;;;;;1.70;1.33;;;17.00;76.70;;;16.80;37.40;100670.09;4805002;29;102764;-58
2022/04/12 08:36:20;;;;;;;2.40;1.93;;;17.00;76.50;;;16.89;37.42;100670.38;4809033;29;97329;-58
2022/04/12 08:38:46;;;;;;;2.90;1.67;;;17.10;76.30;;;16.87;37.60;100668.75;4805638;29;98098;-56
2022/04/12 08:41:14;;;;;;;2.23;1.60;;;17.10;76.50;;;16.75;37.89;100667.69;4810120;29;97389;-59
2022/04/12 08:43:41;;;;;;;3.30;1.73;;;17.10;76.50;;;16.85;37.69;100662.66;4804576;29;105303;-57
2022/04/12 08:46:08;;;;;;;1.70;1.60;;;17.10;76.60;;;16.80;37.57;100664.78;4807568;29;102417;-59
2022/04/12 08:48:34;;;;;;;2.77;1.70;;;17.10;76.70;;;16.85;37.36;100668.84;4808286;29;97727;-57
2022/04/12 08:51:02;;;;;;;3.20;2.23;;;17.10;76.60;;;16.91;37.89;100657.81;4806815;29;112586;-59
2022/04/12 08:53:29;;;;;;;1.80;1.50;;;17.10;76.80;;;17.00;37.35;100660.88;4815349;29;97070;-57
2022/04/12 08:55:55;;;;;;;1.77;1.63;;;17.20;76.90;;;17.03;37.17;100666.84;4807699;29;110119;-59
2022/04/12 08:58:21;;;;;;;3.13;1.90;;;17.20;76.40;;;17.06;37.26;100666.66;4806876;29;98325;-56
2022/04/12 09:00:49;;;;;;;2.00;1.20;;;17.20;76.50;;;16.89;37.58;100669.53;4806241;29;120193;-56
2022/04/12 09:03:15;;;;;;;3.80;2.13;;;17.20;76.50;;;16.94;37.63;100657.66;4793912;29;98233;-56
2022/04/12 09:05:42;;;;;;;2.13;1.60;;;17.20;76.70;;;16.99;37.32;100664.50;4805605;29;98675;-58
2022/04/12 09:08:29;;;;;;;1.70;1.50;;;17.20;76.40;;;17.07;37.15;100652.41;4806308;29;97325;-58
2022/04/12 09:11:02;;;;;;;4.27;2.80;;;17.30;76.40;;;17.14;37.42;100656.38;4805203;29;97637;-59
2022/04/12 09:13:29;;;;;;;1.37;1.27;;;17.30;76.60;;;17.06;37.39;100655.16;4809047;29;97332;-56
2022/04/12 09:15:57;;;;;;;4.40;2.17;;;17.30;76.40;;;17.07;37.43;100667.50;4803487;29;98810;-58
2022/04/12 09:18:42;;;;;;;3.17;1.73;;;17.30;76.60;;;17.11;37.39;100650.41;4808160;29;97403;-52
2022/04/12 09:21:27;;;;;;;1.90;1.67;;;17.30;77.30;;;17.12;37.59;100638.78;4804530;29;101813;-59
2022/04/12 09:23:55;;;;;;;1.73;1.40;;;17.30;77.50;;;17.00;37.58;100650.22;4803307;29;97443;-57
2022/04/12 09:26:25;;;;;;;3.33;1.83;;;17.30;76.40;;;17.03;37.38;100650.00;4806316;29;97486;-60
2022/04/12 09:28:54;;;;;;;1.30;1.20;;;17.30;76.70;;;17.08;37.42;100656.78;4793214;29;97793;-58
2022/04/12 09:31:20;;;;;;;2.47;1.97;;;17.30;77.00;;;17.10;37.48;100656.69;4807643;29;98633;-57
2022/04/12 09:33:48;;;;;;;2.37;1.73;;;17.30;76.70;;;17.14;37.54;100648.41;4804921;29;99009;-60
2022/04/12 09:36:15;;;;;;;2.87;1.00;;;17.40;76.80;;;16.99;37.65;100643.16;4807413;29;99949;-53
2022/04/12 09:38:44;;;;;;;3.07;2.20;;;17.30;76.30;;;17.04;37.65;100635.72;4806573;29;98974;-58
2022/04/12 09:41:23;;;;;;;4.00;2.80;;;17.30;76.80;;;17.25;36.71;100626.41;4810861;29;98010;-58
2022/04/12 09:43:57;;;;;;;2.27;2.00;;;17.40;75.50;;;17.30;37.12;100626.94;4803414;29;98593;-55
2022/04/12 09:46:24;;;;;;;1.67;1.53;;;17.50;76.10;;;17.32;37.88;100625.03;4808499;29;98863;-58
2022/04/12 09:48:55;;;;;;;3.20;1.97;;;17.50;76.90;;;17.28;37.32;100631.53;4805643;29;97602;-55
2022/04/12 09:51:23;;;;;;;2.50;2.17;;;17.60;76.30;;;17.25;37.27;100624.59;4810680;29;98009;-59
2022/04/12 09:53:50;;;;;;;2.53;1.80;;;17.50;76.30;;;17.27;37.22;100621.81;4804465;29;98453;-59
2022/04/12 09:56:21;;;;;;;2.57;2.20;;;17.50;76.10;;;17.29;37.16;100609.25;4822700;29;98851;-59
2022/04/12 09:58:51;;;;;;;1.60;1.03;;;17.60;76.40;;;17.06;37.75;100601.84;4804236;29;99068;-58
2022/04/12 10:01:18;;;;;;;1.40;0.93;;;17.40;76.00;;;16.92;37.91;100606.28;4810988;29;97456;-57
2022/04/12 10:03:51;;;;;;;1.40;1.30;;;17.30;76.80;;;16.95;38.32;100606.06;4807693;29;98081;-58
2022/04/12 10:06:21;;;;;;;2.30;1.80;;;17.30;77.40;;;17.15;38.66;100603.94;4807139;29;98500;-56
2022/04/12 10:08:55;;;;;;;1.50;1.40;;;17.40;78.10;;;17.17;37.58;100594.88;4806751;29;99309;-58
2022/04/12 10:11:24;;;;;;;4.70;1.67;;;17.40;77.00;;;17.30;37.44;100594.09;4805479;29;99846;-51
2022/04/12 10:14:01;;;;;;;3.67;2.17;;;17.50;76.90;;;17.45;37.38;100580.63;4793743;28;98526;-59
2022/04/12 10:16:30;;;;;;;3.10;1.77;;;17.70;77.00;;;17.36;37.49;100588.38;4793304;28;97091;-58